Time;durP1;ratioP1;P1;durP2;ratioP2;P2;SDS_P1;SDS_P2;PMS_P1;PMS_P2;Temp;Humidity;BMP_temperature;BMP_pressure;BME280_temperature;BME280_humidity;BME280_pressure;Samples;Min_cycle;Max_cycle;Signal;HPM_P1;HPM_P2
2022/04/28 00:01:06;;;;;;;14.77;8.75;;;4.00;99.90;;;;;;5124513;28;20047;-65
2022/04/28 00:03:32;;;;;;;19.38;8.00;;;4.00;99.90;;;;;;5125358;28;20125;-66
2022/04/28 00:05:58;;;;;;;13.40;8.30;;;3.90;99.90;;;;;;5140642;27;20039;-65
2022/04/28 00:08:24;;;;;;;13.07;8.20;;;3.80;99.90;;;;;;5124678;28;20053;-65
2022/04/28 00:10:50;;;;;;;16.05;8.25;;;3.90;99.90;;;;;;5124483;28;20407;-65
2022/04/28 00:13:17;;;;;;;13.93;8.63;;;3.90;99.90;;;;;;5123376;28;20089;-65
2022/04/28 00:15:43;;;;;;;14.60;8.88;;;3.90;99.90;;;;;;5123418;28;20061;-65
2022/04/28 00:18:08;;;;;;;17.30;9.35;;;3.80;99.90;;;;;;5116092;28;20043;-65
2022/04/28 00:20:35;;;;;;;12.88;8.30;;;3.70;99.90;;;;;;5124661;28;20126;-65
2022/04/28 00:23:00;;;;;;;13.00;7.85;;;3.60;99.90;;;;;;5104680;28;20044;-65
2022/04/28 00:25:26;;;;;;;12.82;8.20;;;3.50;99.90;;;;;;5103305;28;20090;-65
2022/04/28 00:27:54;;;;;;;15.77;8.02;;;3.50;99.90;;;;;;5104882;28;20040;-65
2022/04/28 00:30:20;;;;;;;13.07;9.02;;;3.50;99.90;;;;;;5116658;28;20431;-65
2022/04/28 00:32:46;;;;;;;16.95;9.07;;;3.50;99.90;;;;;;5123296;28;20047;-65
2022/04/28 00:35:12;;;;;;;13.15;9.32;;;3.60;99.90;;;;;;5124750;28;20053;-66
2022/04/28 00:37:38;;;;;;;16.00;8.57;;;3.60;99.90;;;;;;5123904;28;20077;-65
2022/04/28 00:40:05;;;;;;;18.05;9.18;;;3.60;99.90;;;;;;5125556;28;20674;-65
2022/04/28 00:42:31;;;;;;;13.35;9.60;;;3.50;99.90;;;;;;5140596;28;20604;-65
2022/04/28 00:44:57;;;;;;;16.90;9.20;;;3.50;99.90;;;;;;5123258;28;20115;-65
2022/04/28 00:47:22;;;;;;;16.45;8.93;;;3.40;99.90;;;;;;5140402;28;20040;-65
2022/04/28 00:52:33;;;;;;;17.00;9.40;;;3.60;99.90;;;;;;5124713;28;20047;-65
2022/04/28 00:54:59;;;;;;;16.13;9.38;;;3.60;99.90;;;;;;5133651;28;20110;-65
2022/04/28 00:57:30;;;;;;;15.68;9.15;;;3.50;99.90;;;;;;5125199;28;20082;-65
2022/04/28 00:59:55;;;;;;;20.40;9.38;;;3.60;99.90;;;;;;5125085;28;20099;-65
2022/04/28 01:02:21;;;;;;;14.93;9.50;;;3.50;99.90;;;;;;5124900;28;20032;-65
2022/04/28 01:04:48;;;;;;;15.07;9.60;;;3.50;99.90;;;;;;5106442;28;20049;-65
2022/04/28 01:07:14;;;;;;;17.88;8.65;;;3.40;99.90;;;;;;5106228;28;20050;-65
2022/04/28 01:09:41;;;;;;;14.02;9.40;;;3.30;99.90;;;;;;5105980;28;20157;-65
2022/04/28 01:12:13;;;;;;;17.33;10.38;;;3.40;99.90;;;;;;5124853;28;20099;-65
2022/04/28 01:14:39;;;;;;;17.10;10.25;;;3.30;99.90;;;;;;5126496;28;20049;-65
2022/04/28 01:17:04;;;;;;;16.60;9.88;;;3.10;99.90;;;;;;5144534;28;20043;-65
2022/04/28 01:19:30;;;;;;;16.83;9.70;;;3.10;99.90;;;;;;5144323;28;20047;-65
2022/04/28 01:21:56;;;;;;;14.65;9.68;;;3.10;99.90;;;;;;5089453;28;20028;-65
2022/04/28 01:24:22;;;;;;;19.38;9.95;;;2.80;99.90;;;;;;5124566;28;20036;-65
2022/04/28 01:26:50;;;;;;;16.95;9.40;;;2.80;99.90;;;;;;5110009;28;20054;-65
2022/04/28 01:29:16;;;;;;;17.25;9.57;;;2.90;99.90;;;;;;5110529;28;20051;-65
2022/04/28 01:31:41;;;;;;;17.88;9.75;;;2.90;99.90;;;;;;5109520;28;20047;-65
2022/04/28 01:34:07;;;;;;;21.00;9.38;;;3.00;99.90;;;;;;5133270;27;20035;-65
2022/04/28 01:36:33;;;;;;;15.20;10.70;;;3.00;99.90;;;;;;5130964;27;20043;-65
2022/04/28 01:38:58;;;;;;;17.05;10.75;;;3.00;99.90;;;;;;5131359;27;20047;-65
2022/04/28 01:41:24;;;;;;;18.02;10.15;;;3.00;99.90;;;;;;5149433;27;20483;-65
2022/04/28 01:43:50;;;;;;;18.17;11.35;;;2.90;99.90;;;;;;5131115;27;20047;-65
2022/04/28 01:46:16;;;;;;;16.55;10.25;;;3.00;99.90;;;;;;5149433;27;20070;-65
2022/04/28 01:48:41;;;;;;;14.23;9.63;;;2.80;99.90;;;;;;5148678;27;20043;-65
2022/04/28 01:56:35;;;;;;;13.20;9.00;;;2.80;99.90;;;;;;5134340;27;20081;-65
2022/04/28 01:59:01;;;;;;;15.88;10.32;;;2.80;99.90;;;;;;5129365;27;20051;-65
2022/04/28 02:01:27;;;;;;;13.02;8.95;;;2.90;99.90;;;;;;5130295;27;20042;-65
2022/04/28 02:03:53;;;;;;;19.50;10.30;;;2.90;99.90;;;;;;5147801;27;20078;-65
2022/04/28 02:06:18;;;;;;;14.30;8.52;;;2.90;99.90;;;;;;5129409;27;20039;-65
2022/04/28 02:08:45;;;;;;;15.18;8.85;;;2.80;99.90;;;;;;5148170;27;20107;-65
2022/04/28 02:11:10;;;;;;;15.93;8.60;;;2.90;99.90;;;;;;5147359;27;20060;-65
2022/04/28 02:13:36;;;;;;;14.35;9.50;;;2.90;99.90;;;;;;5129688;27;20047;-65
2022/04/28 02:16:02;;;;;;;15.45;9.40;;;3.00;99.90;;;;;;5146340;27;20043;-65
2022/04/28 02:18:28;;;;;;;14.95;9.73;;;3.10;99.90;;;;;;5121863;27;20086;-65
2022/04/28 02:20:54;;;;;;;11.93;8.57;;;3.20;99.90;;;;;;5131364;27;20095;-65
2022/04/28 02:23:20;;;;;;;13.20;8.60;;;3.30;99.90;;;;;;5092267;28;20047;-65
2022/04/28 02:25:45;;;;;;;10.65;8.63;;;3.40;99.90;;;;;;5127743;27;20046;-65
2022/04/28 02:28:11;;;;;;;14.45;9.13;;;3.30;99.90;;;;;;5109007;28;20044;-65
2022/04/28 02:30:37;;;;;;;15.75;8.27;;;3.30;99.90;;;;;;5108255;28;20471;-65
2022/04/28 02:33:09;;;;;;;15.20;9.65;;;3.30;99.90;;;;;;5126773;27;20048;-65
2022/04/28 02:35:35;;;;;;;15.18;8.57;;;3.30;99.90;;;;;;5127012;27;20057;-66
2022/04/28 02:38:00;;;;;;;11.20;8.60;;;3.50;99.90;;;;;;5145200;27;20506;-65
2022/04/28 02:40:26;;;;;;;16.98;8.63;;;3.60;99.90;;;;;;5147763;27;20064;-65
2022/04/28 02:42:53;;;;;;;15.65;8.48;;;3.80;99.90;;;;;;5129139;27;20096;-65
2022/04/28 02:45:19;;;;;;;10.88;8.43;;;3.80;99.90;;;;;;5145812;27;20051;-65
2022/04/28 02:47:45;;;;;;;14.32;7.88;;;4.10;99.90;;;;;;5145651;27;20053;-65
2022/04/28 02:50:13;;;;;;;15.18;8.50;;;4.20;99.90;;;;;;5145683;27;20118;-66
2022/04/28 02:52:39;;;;;;;14.40;8.60;;;4.10;99.90;;;;;;5128521;27;20051;-66
2022/04/28 02:55:07;;;;;;;13.43;8.45;;;4.20;99.90;;;;;;5145028;27;20047;-66
2022/04/28 02:57:32;;;;;;;19.17;8.18;;;4.30;99.90;;;;;;5129179;27;20054;-66
2022/04/28 02:59:58;;;;;;;12.13;8.40;;;4.30;99.90;;;;;;5146793;27;20082;-66
2022/04/28 03:02:24;;;;;;;12.93;8.45;;;4.50;99.90;;;;;;5147819;27;20080;-65
2022/04/28 03:04:50;;;;;;;14.98;8.68;;;4.40;99.90;;;;;;5129603;27;20035;-65
2022/04/28 03:13:22;;;;;;;14.90;7.97;;;4.30;99.90;;;;;;5042574;28;20481;-65
2022/04/28 03:15:49;;;;;;;15.48;8.35;;;4.30;99.90;;;;;;5043058;28;20054;-66
2022/04/28 03:18:16;;;;;;;13.25;7.90;;;4.50;99.90;;;;;;5044223;28;20046;-65
2022/04/28 03:20:42;;;;;;;11.35;8.05;;;4.60;99.90;;;;;;5042759;28;20111;-66
2022/04/28 03:23:11;;;;;;;17.98;8.10;;;4.70;99.90;;;;;;5025710;28;20050;-65
2022/04/28 03:25:37;;;;;;;11.35;7.60;;;4.80;99.90;;;;;;5043034;28;20057;-65
2022/04/28 03:28:03;;;;;;;13.88;8.13;;;5.00;99.90;;;;;;5027734;28;20080;-66
2022/04/28 03:30:29;;;;;;;17.08;8.30;;;5.00;99.90;;;;;;5044137;28;20060;-66
2022/04/28 03:32:55;;;;;;;16.38;8.52;;;5.10;99.90;;;;;;5026648;28;20045;-65
2022/04/28 03:35:20;;;;;;;10.75;8.43;;;5.10;99.90;;;;;;5025881;28;20060;-66
2022/04/28 03:37:47;;;;;;;15.27;8.98;;;5.10;99.90;;;;;;5042676;28;20046;-66
2022/04/28 03:40:13;;;;;;;13.57;8.68;;;5.00;99.90;;;;;;5048366;28;20502;-66
2022/04/28 03:42:39;;;;;;;12.50;7.50;;;5.10;99.90;;;;;;5081955;28;20268;-65
2022/04/28 03:45:05;;;;;;;12.90;8.02;;;5.20;99.90;;;;;;5065729;28;20075;-66
2022/04/28 03:47:35;;;;;;;12.52;7.70;;;5.20;99.90;;;;;;5065527;28;20052;-65
2022/04/28 03:50:02;;;;;;;15.23;8.02;;;5.40;99.90;;;;;;5144062;27;20051;-66
2022/04/28 03:52:28;;;;;;;18.48;8.50;;;5.40;99.90;;;;;;5127988;27;20039;-65
2022/04/28 03:54:54;;;;;;;17.30;8.40;;;5.40;99.90;;;;;;5145598;27;20416;-66
2022/04/28 03:57:20;;;;;;;12.27;7.55;;;5.50;99.90;;;;;;5110423;27;20052;-65
2022/04/28 03:59:46;;;;;;;16.17;8.68;;;5.40;99.90;;;;;;5107597;28;20445;-65
2022/04/28 04:02:12;;;;;;;16.05;8.00;;;5.40;99.90;;;;;;5107446;28;20048;-66
2022/04/28 04:04:38;;;;;;;13.85;7.70;;;5.40;99.90;;;;;;5106925;28;20043;-66
2022/04/28 04:07:04;;;;;;;12.68;8.27;;;5.50;99.90;;;;;;5125255;28;20038;-65
2022/04/28 04:09:29;;;;;;;13.23;7.60;;;5.50;99.90;;;;;;5126467;28;20043;-65
2022/04/28 04:11:55;;;;;;;11.05;6.60;;;5.50;99.90;;;;;;5124985;27;20556;-65
2022/04/28 04:14:21;;;;;;;12.55;7.70;;;5.60;99.90;;;;;;5146768;27;20070;-66
2022/04/28 04:16:46;;;;;;;12.15;7.70;;;5.60;99.90;;;;;;5140307;27;20039;-65
2022/04/28 04:19:12;;;;;;;12.48;7.55;;;5.60;99.90;;;;;;5146352;27;20148;-65
2022/04/28 04:21:39;;;;;;;14.48;7.85;;;5.60;99.90;;;;;;5097470;28;20040;-66
2022/04/28 04:24:06;;;;;;;11.27;8.60;;;5.80;99.90;;;;;;5125370;28;20047;-66
2022/04/28 04:26:31;;;;;;;11.63;7.47;;;5.80;99.90;;;;;;5108172;28;20457;-66
2022/04/28 04:28:57;;;;;;;15.95;7.80;;;5.90;99.90;;;;;;5108018;28;20039;-65
2022/04/28 04:34:07;;;;;;;11.25;7.13;;;5.90;99.90;;;;;;5116004;28;20051;-66
2022/04/28 04:36:32;;;;;;;14.90;7.60;;;5.80;99.90;;;;;;5127656;28;20039;-66
2022/04/28 04:38:58;;;;;;;13.68;8.63;;;5.80;99.90;;;;;;5146301;28;20081;-66
2022/04/28 04:41:24;;;;;;;14.00;7.53;;;5.80;99.90;;;;;;5143905;28;20359;-65
2022/04/28 04:43:49;;;;;;;13.77;8.00;;;5.90;99.90;;;;;;5145046;28;20070;-66
2022/04/28 04:46:15;;;;;;;12.48;7.15;;;5.90;99.90;;;;;;5143600;28;20047;-66
2022/04/28 04:48:41;;;;;;;14.07;7.90;;;6.00;99.90;;;;;;5126977;28;20052;-66
2022/04/28 04:51:06;;;;;;;9.98;6.68;;;6.00;99.90;;;;;;5145228;28;20039;-65
2022/04/28 04:53:32;;;;;;;11.40;7.47;;;5.90;99.90;;;;;;5143483;28;20047;-65
2022/04/28 04:55:58;;;;;;;11.70;8.05;;;5.90;99.90;;;;;;5113272;28;20059;-66
2022/04/28 04:58:23;;;;;;;12.43;8.20;;;6.10;99.90;;;;;;5144078;28;20244;-66
2022/04/28 05:00:49;;;;;;;12.30;8.27;;;6.10;99.90;;;;;;5146969;27;20106;-66
2022/04/28 05:03:15;;;;;;;9.38;7.45;;;6.40;99.90;;;;;;5148677;27;20039;-65
2022/04/28 05:05:43;;;;;;;15.18;8.32;;;6.20;99.90;;;;;;5147947;27;20050;-65
2022/04/28 05:08:09;;;;;;;15.10;8.52;;;6.20;99.90;;;;;;5147754;27;20084;-65
2022/04/28 05:10:34;;;;;;;11.32;7.78;;;6.20;99.90;;;;;;5148998;27;20039;-65
2022/04/28 05:13:00;;;;;;;11.93;8.93;;;6.30;99.90;;;;;;5129871;27;20095;-65
2022/04/28 05:15:26;;;;;;;14.95;8.38;;;6.30;99.90;;;;;;5148045;27;20418;-65
2022/04/28 05:17:51;;;;;;;13.45;9.18;;;6.30;99.90;;;;;;5141313;27;20035;-65
2022/04/28 05:20:17;;;;;;;13.60;8.80;;;6.40;99.90;;;;;;5120727;28;20089;-65
2022/04/28 05:22:43;;;;;;;16.05;9.43;;;6.40;99.90;;;;;;5110157;28;20043;-66
2022/04/28 05:25:08;;;;;;;13.18;8.95;;;6.40;99.90;;;;;;5093111;28;20113;-66
2022/04/28 05:27:34;;;;;;;12.90;9.50;;;6.60;99.90;;;;;;5128631;27;20583;-65
2022/04/28 05:30:00;;;;;;;14.95;9.43;;;6.60;99.90;;;;;;5129356;28;20051;-65
2022/04/28 05:32:26;;;;;;;15.15;9.50;;;6.50;99.90;;;;;;5111443;28;20493;-65
2022/04/28 05:34:51;;;;;;;13.32;9.10;;;6.50;99.90;;;;;;5140412;27;20039;-65
2022/04/28 05:37:18;;;;;;;14.63;9.52;;;6.60;99.90;;;;;;5148416;27;20063;-64
2022/04/28 05:39:43;;;;;;;14.35;8.80;;;6.60;99.90;;;;;;5147322;27;20047;-65
2022/04/28 05:42:10;;;;;;;14.25;9.63;;;6.70;99.90;;;;;;5129954;27;20134;-65
2022/04/28 05:47:21;;;;;;;13.70;8.73;;;6.70;99.90;;;;;;5131030;27;20133;-65
2022/04/28 05:49:47;;;;;;;12.77;8.32;;;6.70;99.90;;;;;;5146871;27;20092;-65
2022/04/28 05:52:13;;;;;;;14.70;8.95;;;6.80;99.90;;;;;;5129849;27;20062;-65
2022/04/28 05:54:40;;;;;;;12.48;8.95;;;6.80;99.90;;;;;;5146124;27;20047;-65
2022/04/28 05:57:06;;;;;;;16.67;9.27;;;7.00;99.90;;;;;;5130226;27;20043;-65
2022/04/28 05:59:31;;;;;;;12.82;9.40;;;6.90;99.90;;;;;;5129787;27;20093;-65
2022/04/28 06:01:58;;;;;;;15.15;9.38;;;7.00;99.90;;;;;;5146821;27;20051;-65
2022/04/28 06:04:23;;;;;;;22.70;9.18;;;7.00;99.90;;;;;;5130300;27;20058;-65
2022/04/28 06:06:49;;;;;;;17.52;9.25;;;7.30;99.90;;;;;;5129527;27;20083;-65
2022/04/28 06:09:15;;;;;;;12.90;9.25;;;7.10;99.90;;;;;;5147897;27;20027;-65
2022/04/28 06:11:41;;;;;;;12.63;9.07;;;7.00;99.90;;;;;;5128257;28;20043;-65
2022/04/28 06:14:07;;;;;;;13.98;8.85;;;7.10;99.90;;;;;;5146322;27;20068;-65
2022/04/28 06:16:32;;;;;;;15.70;8.18;;;7.20;99.90;;;;;;5148620;27;20051;-65
2022/04/28 06:18:58;;;;;;;13.88;9.18;;;7.20;99.90;;;;;;5128785;27;20055;-65
2022/04/28 06:21:24;;;;;;;12.55;7.70;;;7.20;99.90;;;;;;5134761;27;20047;-65
2022/04/28 06:23:50;;;;;;;13.88;9.23;;;7.30;99.90;;;;;;5126906;27;20047;-65
2022/04/28 06:26:16;;;;;;;16.58;8.95;;;7.30;99.90;;;;;;5109217;28;20043;-65
2022/04/28 06:28:42;;;;;;;13.13;7.20;;;7.40;99.90;;;;;;5109470;28;20073;-65
2022/04/28 06:31:08;;;;;;;10.45;7.22;;;7.50;99.90;;;;;;5127105;27;20047;-65
2022/04/28 06:33:33;;;;;;;11.23;6.70;;;7.50;99.90;;;;;;5108950;27;20051;-65
2022/04/28 06:35:59;;;;;;;13.38;7.22;;;7.60;99.90;;;;;;5147109;27;20039;-65
2022/04/28 06:38:25;;;;;;;12.32;6.57;;;7.80;99.90;;;;;;5147211;27;20103;-65
2022/04/28 06:40:51;;;;;;;10.30;6.30;;;8.00;99.90;;;;;;5146010;27;20050;-66
2022/04/28 06:43:18;;;;;;;10.95;6.43;;;8.00;99.90;;;;;;5145814;27;20039;-66
2022/04/28 06:46:11;;;;;;;12.43;5.95;;;8.10;99.90;;;;;;5146984;27;20047;-65
2022/04/28 06:48:29;;;;;;;13.75;6.43;;;8.30;99.90;;;;;;5145694;27;20138;-66
2022/04/28 06:50:55;;;;;;;10.02;5.53;;;8.50;99.90;;;;;;5128745;27;20060;-66
2022/04/28 06:53:21;;;;;;;14.18;6.70;;;8.50;99.90;;;;;;5148181;27;20041;-66
2022/04/28 06:55:47;;;;;;;14.15;6.93;;;8.70;99.90;;;;;;5119867;27;20056;-65
2022/04/28 06:58:12;;;;;;;13.00;6.97;;;8.80;99.90;;;;;;5084854;28;20063;-65
2022/04/28 07:00:38;;;;;;;15.85;7.10;;;9.00;99.90;;;;;;5078537;28;20047;-65
2022/04/28 07:03:04;;;;;;;14.48;7.28;;;8.90;99.90;;;;;;5105584;28;20181;-66
2022/04/28 07:05:29;;;;;;;12.27;6.53;;;9.00;99.90;;;;;;5104318;28;20048;-66
2022/04/28 07:07:55;;;;;;;15.82;7.55;;;9.10;99.90;;;;;;5121213;28;20048;-65
2022/04/28 07:10:21;;;;;;;12.48;6.57;;;9.10;99.90;;;;;;5105747;28;20051;-66
2022/04/28 07:12:47;;;;;;;15.13;7.30;;;9.10;99.90;;;;;;5106118;28;20051;-66
2022/04/28 07:15:12;;;;;;;12.00;5.97;;;9.40;99.90;;;;;;5105237;28;20048;-66
2022/04/28 07:17:38;;;;;;;16.35;6.63;;;9.50;99.90;;;;;;5098323;28;20411;-65
2022/04/28 07:20:04;;;;;;;15.32;6.22;;;9.60;99.90;;;;;;5112270;28;20053;-65
2022/04/28 07:22:30;;;;;;;8.52;5.13;;;9.80;99.90;;;;;;5085340;28;20428;-66
2022/04/28 07:24:55;;;;;;;13.88;4.70;;;9.80;99.90;;;;;;5083305;28;20044;-66
2022/04/28 07:27:21;;;;;;;12.88;5.32;;;9.90;99.90;;;;;;5085055;28;20044;-65
2022/04/28 07:29:47;;;;;;;9.95;4.57;;;9.90;99.90;;;;;;5084868;28;20056;-65
2022/04/28 07:32:12;;;;;;;13.30;4.80;;;9.80;99.90;;;;;;5085831;28;20068;-65
2022/04/28 07:34:38;;;;;;;13.50;4.95;;;9.90;99.90;;;;;;5092746;28;20102;-65
2022/04/28 07:37:04;;;;;;;9.60;4.50;;;9.90;99.90;;;;;;5087061;28;20107;-65
2022/04/28 07:39:30;;;;;;;7.97;4.57;;;10.00;99.90;;;;;;5103952;28;20124;-65
2022/04/28 07:41:55;;;;;;;11.85;4.70;;;10.10;99.90;;;;;;5105804;28;20143;-65
2022/04/28 07:44:21;;;;;;;5.43;3.45;;;10.20;99.90;;;;;;5105180;28;20070;-65
2022/04/28 07:46:47;;;;;;;6.85;3.90;;;10.20;99.90;;;;;;5105884;28;20120;-66
2022/04/28 07:49:13;;;;;;;9.07;3.88;;;10.30;99.90;;;;;;5120465;28;20048;-65
2022/04/28 07:51:38;;;;;;;7.78;3.15;;;10.20;99.90;;;;;;5105016;28;20075;-65
2022/04/28 07:54:04;;;;;;;11.02;3.92;;;10.30;99.90;;;;;;5104916;28;20040;-65
2022/04/28 07:56:30;;;;;;;13.77;4.90;;;10.30;99.90;;;;;;5129054;27;20540;-66
2022/04/28 07:58:56;;;;;;;10.00;3.28;;;10.60;99.90;;;;;;5107032;28;20051;-66
2022/04/28 08:01:22;;;;;;;9.10;3.40;;;10.70;99.90;;;;;;5107338;28;20044;-66
2022/04/28 08:03:49;;;;;;;6.30;2.65;;;10.80;99.90;;;;;;5107067;28;20044;-66
2022/04/28 08:06:14;;;;;;;6.95;2.75;;;10.70;99.90;;;;;;5124912;28;20532;-66
2022/04/28 08:08:41;;;;;;;5.32;2.92;;;10.80;99.90;;;;;;5106618;28;20358;-66
2022/04/28 08:11:08;;;;;;;7.68;2.70;;;10.70;99.90;;;;;;5135949;27;20088;-66
2022/04/28 08:13:34;;;;;;;9.93;3.10;;;10.70;99.90;;;;;;5126839;28;20050;-66
2022/04/28 08:16:01;;;;;;;11.68;3.25;;;10.70;99.90;;;;;;5145377;27;20077;-66
2022/04/28 08:18:30;;;;;;;7.93;3.33;;;10.50;99.90;;;;;;5139839;27;20047;-66
2022/04/28 08:20:56;;;;;;;8.68;3.20;;;10.50;99.90;;;;;;5128589;27;20047;-66
2022/04/28 08:23:21;;;;;;;8.35;2.63;;;10.50;99.90;;;;;;5106820;28;20049;-66
2022/04/28 08:25:47;;;;;;;5.20;2.83;;;10.40;99.90;;;;;;5125092;28;20039;-66
2022/04/28 08:28:13;;;;;;;6.13;2.95;;;10.50;99.90;;;;;;5107270;28;20046;-66
2022/04/28 08:30:39;;;;;;;8.68;3.17;;;10.50;99.90;;;;;;5124798;28;20054;-66
2022/04/28 08:33:05;;;;;;;8.70;2.92;;;10.70;99.90;;;;;;5125055;28;20118;-66
2022/04/28 08:35:31;;;;;;;9.88;3.03;;;10.90;99.90;;;;;;5125007;27;20054;-66
2022/04/28 08:37:57;;;;;;;6.43;2.60;;;11.10;99.90;;;;;;5148152;27;20043;-66
2022/04/28 08:40:23;;;;;;;12.32;2.53;;;11.30;99.90;;;;;;5149983;27;20060;-66
2022/04/28 08:42:49;;;;;;;9.70;2.83;;;11.40;99.90;;;;;;5130786;27;20047;-66
2022/04/28 08:45:26;;;;;;;7.90;3.10;;;11.30;99.90;;;;;;5130866;27;20035;-66
2022/04/28 08:47:56;;;;;;;7.53;2.70;;;11.40;99.90;;;;;;5147848;27;20051;-66
2022/04/28 08:50:22;;;;;;;;;;;11.10;99.90;;;;;;5148935;27;20035;-66
2022/04/28 08:52:48;;;;;;;6.22;2.55;;;11.00;99.90;;;;;;5131148;27;19926;-66
2022/04/28 08:55:16;;;;;;;10.50;3.30;;;10.90;99.90;;;;;;5149550;27;20620;-66
2022/04/28 08:57:42;;;;;;;12.00;2.72;;;10.90;99.90;;;;;;5113633;28;20127;-66
2022/04/28 09:00:08;;;;;;;5.78;2.38;;;10.90;99.90;;;;;;5111154;28;20082;-66
2022/04/28 09:02:34;;;;;;;7.75;2.72;;;10.90;99.90;;;;;;5110835;28;20295;-66
2022/04/28 09:05:05;;;;;;;9.93;2.88;;;11.00;99.90;;;;;;5110276;28;20078;-66
2022/04/28 09:07:35;;;;;;;8.60;3.47;;;11.00;99.90;;;;;;5128663;27;20132;-66
2022/04/28 09:10:27;;;;;;;7.45;2.80;;;11.00;99.90;;;;;;5130098;27;20047;-66
2022/04/28 09:14:08;;;;;;;7.78;3.35;;;11.10;99.90;;;;;;5100020;27;20047;-66
2022/04/28 09:15:51;;;;;;;8.77;3.13;;;11.10;99.90;;;;;;5149434;27;20074;-66
2022/04/28 09:18:19;;;;;;;7.53;2.85;;;11.10;99.90;;;;;;5141633;27;20039;-66
2022/04/28 09:20:46;;;;;;;10.27;2.95;;;11.10;99.90;;;;;;5125735;28;20039;-66
2022/04/28 09:23:13;;;;;;;11.93;3.30;;;11.00;99.90;;;;;;5110556;28;20395;-66
2022/04/28 09:25:40;;;;;;;9.50;3.25;;;11.00;99.90;;;;;;5129852;28;20085;-66
2022/04/28 09:28:08;;;;;;;8.70;3.67;;;11.00;99.90;;;;;;5110722;28;20052;-66
2022/04/28 09:30:35;;;;;;;5.75;2.85;;;11.00;99.90;;;;;;5110864;28;20050;-66
2022/04/28 09:33:09;;;;;;;10.57;3.10;;;11.00;99.90;;;;;;5129335;28;20103;-66
2022/04/28 09:35:34;;;;;;;7.22;3.13;;;11.10;99.90;;;;;;5127281;27;20054;-66
2022/04/28 09:38:00;;;;;;;8.15;3.42;;;11.30;99.90;;;;;;5130085;27;20403;-66
2022/04/28 09:43:13;;;;;;;10.32;3.90;;;11.60;99.90;;;;;;5148042;27;20051;-66
2022/04/28 09:45:39;;;;;;;6.38;3.95;;;11.90;99.90;;;;;;5147082;27;20066;-66
2022/04/28 09:48:05;;;;;;;9.73;3.58;;;12.00;99.90;;;;;;5147712;27;20051;-66
2022/04/28 09:50:31;;;;;;;13.20;4.38;;;12.30;99.90;;;;;;5149454;27;20051;-66
2022/04/28 09:53:03;;;;;;;8.65;3.38;;;12.40;99.90;;;;;;5148974;27;20043;-66
2022/04/28 09:55:30;;;;;;;9.80;4.03;;;12.50;99.90;;;;;;5147449;27;20643;-66
2022/04/28 09:57:56;;;;;;;11.32;3.50;;;12.40;99.90;;;;;;5148712;27;20047;-66
2022/04/28 10:00:22;;;;;;;11.23;3.80;;;12.60;99.90;;;;;;5149318;27;20039;-66
2022/04/28 10:02:49;;;;;;;8.73;3.65;;;12.60;99.90;;;;;;5146742;27;20104;-66
2022/04/28 10:05:16;;;;;;;10.85;3.63;;;12.70;99.90;;;;;;5147978;27;20065;-66
2022/04/28 10:07:42;;;;;;;10.57;3.78;;;12.70;99.90;;;;;;5148522;27;20128;-66
2022/04/28 10:10:08;;;;;;;9.82;4.05;;;12.80;99.90;;;;;;5148439;27;20035;-66
2022/04/28 10:12:35;;;;;;;9.10;3.80;;;12.70;99.90;;;;;;5129672;27;20229;-66
2022/04/28 10:15:04;;;;;;;8.35;3.53;;;12.80;99.90;;;;;;5130518;27;20057;-66
2022/04/28 10:17:37;;;;;;;6.05;3.67;;;12.90;99.90;;;;;;5123171;27;20069;-66
2022/04/28 10:20:18;;;;;;;7.95;3.80;;;13.00;99.90;;;;;;5121709;28;20113;-66
2022/04/28 10:22:46;;;;;;;7.25;3.40;;;13.10;99.90;;;;;;5109766;28;20203;-66
2022/04/28 10:32:22;;;;;;;9.98;3.60;;;13.20;99.90;;;;;;5128093;27;20050;-66
2022/04/28 10:33:48;;;;;;;12.50;4.05;;;13.40;99.90;;;;;;5111445;27;20090;-66
2022/04/28 10:36:21;;;;;;;13.35;3.97;;;13.30;99.90;;;;;;5147186;27;20035;-66
2022/04/28 10:39:08;;;;;;;17.02;4.10;;;13.30;99.90;;;;;;5147124;27;20126;-66
2022/04/28 10:41:35;;;;;;;10.00;3.92;;;13.20;99.90;;;;;;5128753;27;20051;-66
2022/04/28 10:44:15;;;;;;;8.05;4.18;;;13.10;99.90;;;;;;5147311;27;20054;-66
2022/04/28 10:46:59;;;;;;;14.95;4.63;;;13.20;99.90;;;;;;5129224;27;20051;-66
2022/04/28 10:49:25;;;;;;;11.93;4.65;;;13.30;99.90;;;;;;5145411;27;20122;-66
2022/04/28 10:51:57;;;;;;;9.98;4.57;;;13.40;99.90;;;;;;5128929;27;20055;-66
2022/04/28 10:54:24;;;;;;;10.07;4.28;;;13.40;99.90;;;;;;5147020;27;20080;-66
2022/04/28 10:56:56;;;;;;;13.60;4.70;;;13.50;99.90;;;;;;5132022;27;20047;-66
2022/04/28 10:59:32;;;;;;;12.52;4.53;;;13.50;99.90;;;;;;5114338;27;20045;-66
2022/04/28 11:02:21;;;;;;;10.68;4.15;;;13.50;99.90;;;;;;5128660;27;20058;-66
2022/04/28 11:05:03;;;;;;;11.25;5.03;;;13.60;99.90;;;;;;5134300;27;20051;-66
2022/04/28 11:07:31;;;;;;;10.57;4.97;;;13.70;99.90;;;;;;5145232;27;20079;-66
2022/04/28 11:10:02;;;;;;;12.27;5.05;;;13.70;99.90;;;;;;5145236;27;20043;-66
2022/04/28 11:12:41;;;;;;;11.10;5.15;;;13.80;99.90;;;;;;5115081;27;20054;-66
2022/04/28 11:15:10;;;;;;;10.77;4.80;;;13.80;99.90;;;;;;5146525;27;20087;-66
2022/04/28 11:17:43;;;;;;;11.35;4.20;;;13.80;99.90;;;;;;5128482;27;20099;-66
2022/04/28 11:20:15;;;;;;;12.40;4.43;;;14.00;99.90;;;;;;5126542;27;20043;-66
2022/04/28 11:22:46;;;;;;;8.85;4.13;;;14.10;99.90;;;;;;5126683;27;20079;-66
2022/04/28 11:25:13;;;;;;;9.02;4.68;;;14.10;99.90;;;;;;5126576;28;20047;-66
2022/04/28 11:27:39;;;;;;;10.73;4.53;;;14.10;99.90;;;;;;5125901;27;20101;-66
2022/04/28 11:30:06;;;;;;;12.38;5.20;;;14.20;99.90;;;;;;5125794;27;20040;-66
2022/04/28 11:32:31;;;;;;;10.23;4.65;;;14.30;99.90;;;;;;5108637;28;20174;-66
2022/04/28 11:34:58;;;;;;;13.00;5.30;;;14.30;99.90;;;;;;5119758;27;20106;-66
2022/04/28 11:37:28;;;;;;;11.02;5.43;;;14.30;99.90;;;;;;5146510;27;20096;-66
2022/04/28 11:39:57;;;;;;;10.10;4.90;;;14.40;99.90;;;;;;5145681;27;20035;-66
2022/04/28 11:42:26;;;;;;;12.60;4.65;;;14.40;99.90;;;;;;5146789;27;20064;-66
2022/04/28 11:44:56;;;;;;;9.43;4.97;;;14.60;99.90;;;;;;5146122;27;20040;-66
2022/04/28 11:47:24;;;;;;;11.32;4.80;;;14.60;99.90;;;;;;5144759;27;20074;-66
2022/04/28 11:49:57;;;;;;;12.73;6.15;;;14.60;99.90;;;;;;5145359;27;20549;-66
2022/04/28 11:52:34;;;;;;;12.23;5.75;;;14.60;99.90;;;;;;5144681;27;20049;-66
2022/04/28 11:55:08;;;;;;;11.45;5.03;;;14.60;99.90;;;;;;5144193;27;20053;-66
2022/04/28 11:57:39;;;;;;;12.68;5.05;;;14.70;99.90;;;;;;5127466;27;20055;-66
2022/04/28 12:00:11;;;;;;;15.15;5.68;;;14.70;99.90;;;;;;5146235;27;20070;-66
2022/04/28 12:02:38;;;;;;;12.02;5.00;;;14.70;99.90;;;;;;5128026;27;20050;-66
2022/04/28 12:05:16;;;;;;;14.05;5.68;;;14.60;99.90;;;;;;5145632;27;20043;-66
2022/04/28 12:07:51;;;;;;;14.27;4.28;;;14.60;99.90;;;;;;5145709;27;20047;-66
2022/04/28 12:16:02;;;;;;;9.15;5.28;;;14.50;99.90;;;;;;5145353;27;20051;-66
2022/04/28 12:21:32;;;;;;;14.93;4.95;;;14.60;99.90;;;;;;5108520;28;20076;-66
2022/04/28 12:23:58;;;;;;;10.68;4.68;;;14.80;99.90;;;;;;5125167;27;20091;-66
2022/04/28 12:26:25;;;;;;;11.85;4.70;;;14.90;99.90;;;;;;5111027;28;20096;-66
2022/04/28 12:28:52;;;;;;;9.43;4.03;;;14.90;99.90;;;;;;5139679;27;20054;-65
2022/04/28 12:31:30;;;;;;;8.73;3.88;;;14.90;99.90;;;;;;5144156;28;20493;-65
2022/04/28 12:33:56;;;;;;;16.48;4.30;;;14.90;99.90;;;;;;5124124;28;20076;-65
2022/04/28 12:36:22;;;;;;;13.02;4.20;;;15.00;99.90;;;;;;5134199;28;20039;-65
2022/04/28 12:38:51;;;;;;;10.55;4.75;;;14.90;99.90;;;;;;5145284;28;20051;-65
2022/04/28 12:41:25;;;;;;;20.65;8.88;;;15.10;99.90;;;;;;5145196;28;20031;-65
2022/04/28 12:44:00;;;;;;;17.30;5.32;;;15.10;99.90;;;;;;5145407;28;20067;-65
2022/04/28 12:46:36;;;;;;;12.88;4.63;;;15.10;99.90;;;;;;5145531;28;20129;-65
2022/04/28 12:49:07;;;;;;;13.95;4.10;;;15.00;99.90;;;;;;5144961;28;20407;-65
2022/04/28 12:51:52;;;;;;;11.00;4.35;;;15.10;99.90;;;;;;5126478;28;20043;-65
2022/04/28 12:54:25;;;;;;;12.68;5.00;;;15.20;99.90;;;;;;5145372;28;20054;-65
2022/04/28 12:56:54;;;;;;;7.82;4.78;;;15.10;99.90;;;;;;5145867;28;20055;-65
2022/04/28 12:59:27;;;;;;;15.48;5.63;;;15.20;99.90;;;;;;5144219;28;20107;-65
2022/04/28 13:01:54;;;;;;;14.38;4.47;;;15.30;99.90;;;;;;5144781;28;20088;-65
2022/04/28 13:04:22;;;;;;;20.02;9.95;;;15.40;99.90;;;;;;5126562;28;20039;-65
2022/04/28 13:06:49;;;;;;;16.27;4.70;;;15.50;99.90;;;;;;5126305;28;20072;-65
2022/04/28 13:09:16;;;;;;;11.93;3.80;;;15.50;99.90;;;;;;5145232;28;20039;-65
2022/04/28 13:11:47;;;;;;;12.25;4.25;;;15.50;99.90;;;;;;5126983;28;20080;-65
2022/04/28 13:14:16;;;;;;;10.98;3.70;;;15.60;99.90;;;;;;5143676;28;20055;-65
2022/04/28 13:16:42;;;;;;;11.05;4.22;;;15.80;99.90;;;;;;5144859;28;20039;-65
2022/04/28 13:19:09;;;;;;;16.17;4.47;;;15.70;99.90;;;;;;5125774;28;20502;-65
2022/04/28 13:21:36;;;;;;;13.20;5.97;;;15.90;99.90;;;;;;5108537;28;20052;-65
2022/04/28 13:24:02;;;;;;;11.93;6.28;;;15.90;99.90;;;;;;5128375;27;20051;-65